sensor_id;sensor_type;location;lat;lon;timestamp;temperature;humidity
47626;DHT22;33342;45.574;9.252;2023-06-19T00:01:14;24.30;99.90
47626;DHT22;33342;45.574;9.252;2023-06-19T00:03:41;24.20;99.90
47626;DHT22;33342;45.574;9.252;2023-06-19T00:06:08;24.10;99.90
47626;DHT22;33342;45.574;9.252;2023-06-19T00:08:35;24.10;99.90
47626;DHT22;33342;45.574;9.252;2023-06-19T00:11:03;24.10;99.90
47626;DHT22;33342;45.574;9.252;2023-06-19T00:13:30;24.10;99.90
47626;DHT22;33342;45.574;9.252;2023-06-19T00:15:57;24.10;99.90
47626;DHT22;33342;45.574;9.252;2023-06-19T00:18:28;24.10;99.90
47626;DHT22;33342;45.574;9.252;2023-06-19T00:20:55;24.10;99.90
47626;DHT22;33342;45.574;9.252;2023-06-19T00:23:23;24.10;99.90
47626;DHT22;33342;45.574;9.252;2023-06-19T00:25:51;24.10;99.90
47626;DHT22;33342;45.574;9.252;2023-06-19T00:28:18;24.20;99.90
47626;DHT22;33342;45.574;9.252;2023-06-19T00:30:47;24.10;99.90
47626;DHT22;33342;45.574;9.252;2023-06-19T00:33:14;24.10;99.90
47626;DHT22;33342;45.574;9.252;2023-06-19T00:35:41;24.00;99.90
47626;DHT22;33342;45.574;9.252;2023-06-19T00:38:09;23.90;99.90
47626;DHT22;33342;45.574;9.252;2023-06-19T00:40:37;23.90;99.90
47626;DHT22;33342;45.574;9.252;2023-06-19T00:43:04;23.80;99.90
47626;DHT22;33342;45.574;9.252;2023-06-19T00:45:31;23.80;99.90
47626;DHT22;33342;45.574;9.252;2023-06-19T00:47:59;23.90;99.90
47626;DHT22;33342;45.574;9.252;2023-06-19T00:50:28;23.90;99.90
47626;DHT22;33342;45.574;9.252;2023-06-19T00:52:58;23.90;99.90
47626;DHT22;33342;45.574;9.252;2023-06-19T00:55:28;24.00;99.90
47626;DHT22;33342;45.574;9.252;2023-06-19T00:57:56;24.00;99.90
47626;DHT22;33342;45.574;9.252;2023-06-19T01:00:24;24.00;99.90
47626;DHT22;33342;45.574;9.252;2023-06-19T01:02:52;24.00;99.90
47626;DHT22;33342;45.574;9.252;2023-06-19T01:05:20;24.00;99.90
47626;DHT22;33342;45.574;9.252;2023-06-19T01:08:02;23.90;99.90
47626;DHT22;33342;45.574;9.252;2023-06-19T01:10:36;23.90;99.90
47626;DHT22;33342;45.574;9.252;2023-06-19T01:15:53;23.90;99.90
47626;DHT22;33342;45.574;9.252;2023-06-19T01:18:21;23.80;99.90
47626;DHT22;33342;45.574;9.252;2023-06-19T01:20:49;23.80;99.90
47626;DHT22;33342;45.574;9.252;2023-06-19T01:23:16;23.90;99.90
47626;DHT22;33342;45.574;9.252;2023-06-19T01:25:43;23.90;99.90
47626;DHT22;33342;45.574;9.252;2023-06-19T01:28:11;23.90;99.90
47626;DHT22;33342;45.574;9.252;2023-06-19T01:30:41;23.90;99.90
47626;DHT22;33342;45.574;9.252;2023-06-19T01:33:20;23.90;99.90
47626;DHT22;33342;45.574;9.252;2023-06-19T01:35:49;23.80;99.90
47626;DHT22;33342;45.574;9.252;2023-06-19T01:38:20;23.80;99.90
47626;DHT22;33342;45.574;9.252;2023-06-19T01:40:49;23.80;99.90
47626;DHT22;33342;45.574;9.252;2023-06-19T01:43:18;23.80;99.90
47626;DHT22;33342;45.574;9.252;2023-06-19T01:45:45;23.80;99.90
47626;DHT22;33342;45.574;9.252;2023-06-19T01:48:14;23.80;99.90
47626;DHT22;33342;45.574;9.252;2023-06-19T01:50:45;23.80;99.90
47626;DHT22;33342;45.574;9.252;2023-06-19T01:53:14;23.80;99.90
47626;DHT22;33342;45.574;9.252;2023-06-19T01:55:41;23.80;99.90
47626;DHT22;33342;45.574;9.252;2023-06-19T01:58:08;23.70;99.90
47626;DHT22;33342;45.574;9.252;2023-06-19T02:00:35;23.70;99.90
47626;DHT22;33342;45.574;9.252;2023-06-19T02:03:04;23.70;99.90
47626;DHT22;33342;45.574;9.252;2023-06-19T02:05:31;23.70;99.90
47626;DHT22;33342;45.574;9.252;2023-06-19T02:08:01;23.80;99.90
47626;DHT22;33342;45.574;9.252;2023-06-19T02:10:28;23.80;99.90
47626;DHT22;33342;45.574;9.252;2023-06-19T02:12:55;23.70;99.90
47626;DHT22;33342;45.574;9.252;2023-06-19T02:15:22;23.70;99.90
47626;DHT22;33342;45.574;9.252;2023-06-19T02:17:50;23.70;99.90
47626;DHT22;33342;45.574;9.252;2023-06-19T02:20:22;23.80;99.90
47626;DHT22;33342;45.574;9.252;2023-06-19T02:22:51;23.80;99.90
47626;DHT22;33342;45.574;9.252;2023-06-19T02:25:18;23.70;99.90
47626;DHT22;33342;45.574;9.252;2023-06-19T02:27:46;23.70;99.90
47626;DHT22;33342;45.574;9.252;2023-06-19T02:30:14;23.70;99.90
47626;DHT22;33342;45.574;9.252;2023-06-19T02:32:41;23.70;99.90
47626;DHT22;33342;45.574;9.252;2023-06-19T02:35:10;23.80;99.90
47626;DHT22;33342;45.574;9.252;2023-06-19T02:37:38;23.70;99.90
47626;DHT22;33342;45.574;9.252;2023-06-19T02:40:07;23.70;99.90
47626;DHT22;33342;45.574;9.252;2023-06-19T02:42:36;23.70;99.90
47626;DHT22;33342;45.574;9.252;2023-06-19T02:45:03;23.80;99.90
47626;DHT22;33342;45.574;9.252;2023-06-19T02:47:33;23.70;99.90
47626;DHT22;33342;45.574;9.252;2023-06-19T02:50:02;23.70;99.90
47626;DHT22;33342;45.574;9.252;2023-06-19T02:52:31;23.80;99.90
47626;DHT22;33342;45.574;9.252;2023-06-19T02:54:59;23.70;99.90
47626;DHT22;33342;45.574;9.252;2023-06-19T02:57:26;23.70;99.90
47626;DHT22;33342;45.574;9.252;2023-06-19T02:59:53;23.70;99.90
47626;DHT22;33342;45.574;9.252;2023-06-19T03:02:21;23.70;99.90
47626;DHT22;33342;45.574;9.252;2023-06-19T03:04:48;23.70;99.90
47626;DHT22;33342;45.574;9.252;2023-06-19T03:07:16;23.70;99.90
47626;DHT22;33342;45.574;9.252;2023-06-19T03:09:44;23.70;99.90
47626;DHT22;33342;45.574;9.252;2023-06-19T03:12:11;23.70;99.90
47626;DHT22;33342;45.574;9.252;2023-06-19T03:14:38;23.70;99.90
47626;DHT22;33342;45.574;9.252;2023-06-19T03:17:07;23.70;99.90
47626;DHT22;33342;45.574;9.252;2023-06-19T03:19:34;23.70;99.90
47626;DHT22;33342;45.574;9.252;2023-06-19T03:22:01;23.70;99.90
47626;DHT22;33342;45.574;9.252;2023-06-19T03:24:30;23.70;99.90
47626;DHT22;33342;45.574;9.252;2023-06-19T03:27:11;23.70;99.90
47626;DHT22;33342;45.574;9.252;2023-06-19T03:29:38;23.70;99.90
47626;DHT22;33342;45.574;9.252;2023-06-19T03:32:08;23.70;99.90
47626;DHT22;33342;45.574;9.252;2023-06-19T03:34:35;23.80;99.90
47626;DHT22;33342;45.574;9.252;2023-06-19T03:37:06;23.80;99.90
47626;DHT22;33342;45.574;9.252;2023-06-19T03:39:34;23.80;99.90
47626;DHT22;33342;45.574;9.252;2023-06-19T03:42:06;23.90;99.90
47626;DHT22;33342;45.574;9.252;2023-06-19T03:44:34;23.90;99.90
47626;DHT22;33342;45.574;9.252;2023-06-19T03:47:01;23.90;99.90
47626;DHT22;33342;45.574;9.252;2023-06-19T03:49:28;24.00;99.90
47626;DHT22;33342;45.574;9.252;2023-06-19T03:51:56;24.00;99.90
47626;DHT22;33342;45.574;9.252;2023-06-19T03:54:23;24.00;99.90
47626;DHT22;33342;45.574;9.252;2023-06-19T03:56:52;24.00;99.90
47626;DHT22;33342;45.574;9.252;2023-06-19T03:59:19;24.00;99.90
47626;DHT22;33342;45.574;9.252;2023-06-19T04:01:46;24.10;99.90
47626;DHT22;33342;45.574;9.252;2023-06-19T04:04:13;24.00;99.90
47626;DHT22;33342;45.574;9.252;2023-06-19T04:06:41;24.00;99.90
47626;DHT22;33342;45.574;9.252;2023-06-19T04:09:08;24.10;99.90
47626;DHT22;33342;45.574;9.252;2023-06-19T04:11:36;24.10;99.90
47626;DHT22;33342;45.574;9.252;2023-06-19T04:14:03;24.10;99.90
47626;DHT22;33342;45.574;9.252;2023-06-19T04:16:30;24.10;99.90
47626;DHT22;33342;45.574;9.252;2023-06-19T04:18:57;24.10;99.90
47626;DHT22;33342;45.574;9.252;2023-06-19T04:21:26;24.10;99.90
47626;DHT22;33342;45.574;9.252;2023-06-19T04:23:53;24.20;99.90
47626;DHT22;33342;45.574;9.252;2023-06-19T04:26:20;24.20;99.90
47626;DHT22;33342;45.574;9.252;2023-06-19T04:28:48;24.20;99.90
47626;DHT22;33342;45.574;9.252;2023-06-19T04:31:15;24.20;99.90
47626;DHT22;33342;45.574;9.252;2023-06-19T04:33:45;24.20;99.90
47626;DHT22;33342;45.574;9.252;2023-06-19T04:36:13;24.20;99.90
47626;DHT22;33342;45.574;9.252;2023-06-19T04:38:41;24.20;99.90
47626;DHT22;33342;45.574;9.252;2023-06-19T04:41:09;24.20;99.90
47626;DHT22;33342;45.574;9.252;2023-06-19T04:43:36;24.20;99.90
47626;DHT22;33342;45.574;9.252;2023-06-19T04:46:03;24.20;99.90
47626;DHT22;33342;45.574;9.252;2023-06-19T04:48:31;24.20;99.90
47626;DHT22;33342;45.574;9.252;2023-06-19T04:50:58;24.30;99.90
47626;DHT22;33342;45.574;9.252;2023-06-19T04:53:27;24.20;99.90
47626;DHT22;33342;45.574;9.252;2023-06-19T04:55:54;24.30;99.90
47626;DHT22;33342;45.574;9.252;2023-06-19T04:58:22;24.30;99.90
47626;DHT22;33342;45.574;9.252;2023-06-19T05:00:49;24.30;99.90
47626;DHT22;33342;45.574;9.252;2023-06-19T05:03:18;24.30;99.90
47626;DHT22;33342;45.574;9.252;2023-06-19T05:05:46;24.30;99.90
47626;DHT22;33342;45.574;9.252;2023-06-19T05:08:14;24.30;99.90
47626;DHT22;33342;45.574;9.252;2023-06-19T05:10:41;24.30;99.90
47626;DHT22;33342;45.574;9.252;2023-06-19T05:13:12;24.30;99.90
47626;DHT22;33342;45.574;9.252;2023-06-19T05:15:39;24.30;99.90
47626;DHT22;33342;45.574;9.252;2023-06-19T05:18:06;24.30;99.90
47626;DHT22;33342;45.574;9.252;2023-06-19T05:20:33;24.30;99.90
47626;DHT22;33342;45.574;9.252;2023-06-19T05:23:00;24.40;99.90
47626;DHT22;33342;45.574;9.252;2023-06-19T05:25:28;24.40;99.90
47626;DHT22;33342;45.574;9.252;2023-06-19T05:27:55;24.40;99.90
47626;DHT22;33342;45.574;9.252;2023-06-19T05:30:22;24.40;99.90
47626;DHT22;33342;45.574;9.252;2023-06-19T05:32:49;24.40;99.90
47626;DHT22;33342;45.574;9.252;2023-06-19T05:35:17;24.40;99.90
47626;DHT22;33342;45.574;9.252;2023-06-19T05:37:44;24.40;99.90
47626;DHT22;33342;45.574;9.252;2023-06-19T05:40:12;24.40;99.90
47626;DHT22;33342;45.574;9.252;2023-06-19T05:42:42;24.40;99.90
47626;DHT22;33342;45.574;9.252;2023-06-19T05:45:10;24.40;99.90
47626;DHT22;33342;45.574;9.252;2023-06-19T05:47:37;24.30;99.90
47626;DHT22;33342;45.574;9.252;2023-06-19T05:50:05;24.30;99.90
47626;DHT22;33342;45.574;9.252;2023-06-19T05:52:32;24.40;99.90
47626;DHT22;33342;45.574;9.252;2023-06-19T05:54:59;24.40;99.90
47626;DHT22;33342;45.574;9.252;2023-06-19T05:57:27;24.40;99.90
47626;DHT22;33342;45.574;9.252;2023-06-19T05:59:54;24.50;99.90
47626;DHT22;33342;45.574;9.252;2023-06-19T06:02:22;24.50;99.90
47626;DHT22;33342;45.574;9.252;2023-06-19T06:04:49;24.50;99.90
47626;DHT22;33342;45.574;9.252;2023-06-19T06:07:16;24.50;99.90
47626;DHT22;33342;45.574;9.252;2023-06-19T06:09:43;24.50;99.90
47626;DHT22;33342;45.574;9.252;2023-06-19T06:12:10;24.50;99.90
47626;DHT22;33342;45.574;9.252;2023-06-19T06:14:39;24.60;99.90
47626;DHT22;33342;45.574;9.252;2023-06-19T06:17:07;24.60;99.90
47626;DHT22;33342;45.574;9.252;2023-06-19T06:19:34;24.60;99.90
47626;DHT22;33342;45.574;9.252;2023-06-19T06:22:01;24.60;99.90
47626;DHT22;33342;45.574;9.252;2023-06-19T06:24:28;24.60;99.90
47626;DHT22;33342;45.574;9.252;2023-06-19T06:26:56;24.60;99.90
47626;DHT22;33342;45.574;9.252;2023-06-19T06:29:23;24.60;99.90
47626;DHT22;33342;45.574;9.252;2023-06-19T06:31:50;24.70;99.90
47626;DHT22;33342;45.574;9.252;2023-06-19T06:34:19;24.70;99.90
47626;DHT22;33342;45.574;9.252;2023-06-19T06:36:46;24.70;99.90
47626;DHT22;33342;45.574;9.252;2023-06-19T06:39:27;24.70;99.90
47626;DHT22;33342;45.574;9.252;2023-06-19T06:41:54;24.70;99.90
47626;DHT22;33342;45.574;9.252;2023-06-19T06:44:22;24.80;99.90
47626;DHT22;33342;45.574;9.252;2023-06-19T06:46:49;24.80;99.90
47626;DHT22;33342;45.574;9.252;2023-06-19T06:49:18;24.90;99.90
47626;DHT22;33342;45.574;9.252;2023-06-19T06:51:47;24.90;99.90
47626;DHT22;33342;45.574;9.252;2023-06-19T06:54:14;24.90;99.90
47626;DHT22;33342;45.574;9.252;2023-06-19T06:56:42;25.00;99.90
47626;DHT22;33342;45.574;9.252;2023-06-19T06:59:10;25.00;99.90
47626;DHT22;33342;45.574;9.252;2023-06-19T07:01:37;25.10;99.90
47626;DHT22;33342;45.574;9.252;2023-06-19T07:04:04;25.10;99.90
47626;DHT22;33342;45.574;9.252;2023-06-19T07:06:31;25.10;99.90
47626;DHT22;33342;45.574;9.252;2023-06-19T07:08:58;25.00;99.90
47626;DHT22;33342;45.574;9.252;2023-06-19T07:11:26;25.10;99.90
47626;DHT22;33342;45.574;9.252;2023-06-19T07:13:53;25.10;99.90
47626;DHT22;33342;45.574;9.252;2023-06-19T07:16:20;25.20;99.90
47626;DHT22;33342;45.574;9.252;2023-06-19T07:18:48;25.20;99.90
47626;DHT22;33342;45.574;9.252;2023-06-19T07:21:15;25.30;99.90
47626;DHT22;33342;45.574;9.252;2023-06-19T07:23:43;25.30;99.90
47626;DHT22;33342;45.574;9.252;2023-06-19T07:26:12;25.30;99.90
47626;DHT22;33342;45.574;9.252;2023-06-19T07:28:40;25.40;99.90
47626;DHT22;33342;45.574;9.252;2023-06-19T07:31:07;25.40;99.90
47626;DHT22;33342;45.574;9.252;2023-06-19T07:33:35;25.40;99.90
47626;DHT22;33342;45.574;9.252;2023-06-19T07:36:02;25.50;99.90
47626;DHT22;33342;45.574;9.252;2023-06-19T07:38:29;25.60;99.90
47626;DHT22;33342;45.574;9.252;2023-06-19T07:40:57;25.60;99.90
47626;DHT22;33342;45.574;9.252;2023-06-19T07:43:24;25.70;99.90
47626;DHT22;33342;45.574;9.252;2023-06-19T07:45:51;25.70;99.90
47626;DHT22;33342;45.574;9.252;2023-06-19T07:48:18;25.70;99.90
47626;DHT22;33342;45.574;9.252;2023-06-19T07:50:45;25.70;99.90
47626;DHT22;33342;45.574;9.252;2023-06-19T07:53:12;25.80;99.90
47626;DHT22;33342;45.574;9.252;2023-06-19T07:55:41;25.80;99.90
47626;DHT22;33342;45.574;9.252;2023-06-19T07:58:08;25.80;99.90
47626;DHT22;33342;45.574;9.252;2023-06-19T08:00:35;25.70;99.90
47626;DHT22;33342;45.574;9.252;2023-06-19T08:03:02;25.70;99.90
47626;DHT22;33342;45.574;9.252;2023-06-19T08:05:30;25.80;99.90
47626;DHT22;33342;45.574;9.252;2023-06-19T08:07:58;25.80;99.90
47626;DHT22;33342;45.574;9.252;2023-06-19T08:10:26;25.80;99.90
47626;DHT22;33342;45.574;9.252;2023-06-19T08:12:53;25.90;99.90
47626;DHT22;33342;45.574;9.252;2023-06-19T08:15:20;25.90;99.90
47626;DHT22;33342;45.574;9.252;2023-06-19T08:17:47;25.90;99.90
47626;DHT22;33342;45.574;9.252;2023-06-19T08:20:15;25.80;99.90
47626;DHT22;33342;45.574;9.252;2023-06-19T08:22:42;25.90;99.90
47626;DHT22;33342;45.574;9.252;2023-06-19T08:25:09;25.90;99.90
47626;DHT22;33342;45.574;9.252;2023-06-19T08:27:37;26.00;99.90
47626;DHT22;33342;45.574;9.252;2023-06-19T08:30:05;26.00;99.90
47626;DHT22;33342;45.574;9.252;2023-06-19T08:32:32;25.90;99.90
47626;DHT22;33342;45.574;9.252;2023-06-19T08:35:02;25.90;99.90
47626;DHT22;33342;45.574;9.252;2023-06-19T08:37:30;25.90;99.90
47626;DHT22;33342;45.574;9.252;2023-06-19T08:39:57;26.00;99.90
47626;DHT22;33342;45.574;9.252;2023-06-19T08:42:24;26.00;99.90
47626;DHT22;33342;45.574;9.252;2023-06-19T08:44:51;26.00;99.90
47626;DHT22;33342;45.574;9.252;2023-06-19T08:47:18;26.00;99.90
47626;DHT22;33342;45.574;9.252;2023-06-19T08:49:45;26.00;99.90
47626;DHT22;33342;45.574;9.252;2023-06-19T08:52:13;26.00;99.90
47626;DHT22;33342;45.574;9.252;2023-06-19T08:54:40;26.00;99.90
47626;DHT22;33342;45.574;9.252;2023-06-19T08:57:11;26.00;99.90
47626;DHT22;33342;45.574;9.252;2023-06-19T08:59:51;26.10;99.90
47626;DHT22;33342;45.574;9.252;2023-06-19T09:02:18;26.10;99.90
47626;DHT22;33342;45.574;9.252;2023-06-19T09:04:45;26.10;99.90
47626;DHT22;33342;45.574;9.252;2023-06-19T09:07:13;26.10;99.90
47626;DHT22;33342;45.574;9.252;2023-06-19T09:09:47;26.10;99.90
47626;DHT22;33342;45.574;9.252;2023-06-19T09:12:14;26.20;99.90
47626;DHT22;33342;45.574;9.252;2023-06-19T09:14:47;26.20;99.90
47626;DHT22;33342;45.574;9.252;2023-06-19T09:17:19;26.20;99.90
47626;DHT22;33342;45.574;9.252;2023-06-19T09:19:50;26.30;99.90
47626;DHT22;33342;45.574;9.252;2023-06-19T09:22:20;26.30;99.90
47626;DHT22;33342;45.574;9.252;2023-06-19T09:24:48;26.40;99.90
47626;DHT22;33342;45.574;9.252;2023-06-19T09:27:17;26.40;99.90
47626;DHT22;33342;45.574;9.252;2023-06-19T09:29:49;26.40;99.90
47626;DHT22;33342;45.574;9.252;2023-06-19T09:32:27;26.50;99.90
47626;DHT22;33342;45.574;9.252;2023-06-19T09:34:57;26.50;99.90
47626;DHT22;33342;45.574;9.252;2023-06-19T09:37:30;26.60;99.90
47626;DHT22;33342;45.574;9.252;2023-06-19T09:40:00;26.60;99.90
47626;DHT22;33342;45.574;9.252;2023-06-19T09:42:33;26.60;99.90
47626;DHT22;33342;45.574;9.252;2023-06-19T09:45:03;26.70;99.90
47626;DHT22;33342;45.574;9.252;2023-06-19T09:47:38;26.70;99.90
47626;DHT22;33342;45.574;9.252;2023-06-19T09:50:06;26.80;99.90
47626;DHT22;33342;45.574;9.252;2023-06-19T09:52:34;26.80;99.90
47626;DHT22;33342;45.574;9.252;2023-06-19T09:55:05;26.80;99.90
47626;DHT22;33342;45.574;9.252;2023-06-19T09:57:33;26.90;99.90
47626;DHT22;33342;45.574;9.252;2023-06-19T10:00:05;26.90;99.90
47626;DHT22;33342;45.574;9.252;2023-06-19T10:02:40;27.10;99.90
47626;DHT22;33342;45.574;9.252;2023-06-19T10:05:08;27.20;99.90
47626;DHT22;33342;45.574;9.252;2023-06-19T10:07:45;27.30;99.90
47626;DHT22;33342;45.574;9.252;2023-06-19T10:10:23;27.30;99.90
47626;DHT22;33342;45.574;9.252;2023-06-19T10:12:53;27.40;99.90
47626;DHT22;33342;45.574;9.252;2023-06-19T10:15:25;27.40;99.90
47626;DHT22;33342;45.574;9.252;2023-06-19T10:18:15;27.40;99.90
47626;DHT22;33342;45.574;9.252;2023-06-19T10:20:44;27.40;99.90
47626;DHT22;33342;45.574;9.252;2023-06-19T10:23:18;27.30;99.90
47626;DHT22;33342;45.574;9.252;2023-06-19T10:28:31;27.30;99.90
47626;DHT22;33342;45.574;9.252;2023-06-19T10:31:08;27.30;99.90
47626;DHT22;33342;45.574;9.252;2023-06-19T10:33:37;27.30;99.90
47626;DHT22;33342;45.574;9.252;2023-06-19T10:36:21;27.30;99.90
47626;DHT22;33342;45.574;9.252;2023-06-19T10:38:53;27.30;99.90
47626;DHT22;33342;45.574;9.252;2023-06-19T10:41:23;27.30;99.90
47626;DHT22;33342;45.574;9.252;2023-06-19T10:44:08;27.30;99.90
47626;DHT22;33342;45.574;9.252;2023-06-19T10:46:40;27.30;99.90
47626;DHT22;33342;45.574;9.252;2023-06-19T10:49:08;27.30;99.90
47626;DHT22;33342;45.574;9.252;2023-06-19T10:51:38;27.30;99.90
47626;DHT22;33342;45.574;9.252;2023-06-19T10:54:07;27.30;99.90
47626;DHT22;33342;45.574;9.252;2023-06-19T10:56:34;27.30;99.90
47626;DHT22;33342;45.574;9.252;2023-06-19T10:59:05;27.40;99.90
47626;DHT22;33342;45.574;9.252;2023-06-19T11:01:36;27.40;99.90
47626;DHT22;33342;45.574;9.252;2023-06-19T11:04:08;27.40;99.90
47626;DHT22;33342;45.574;9.252;2023-06-19T11:06:37;27.50;99.90
47626;DHT22;33342;45.574;9.252;2023-06-19T11:09:06;27.50;99.90
47626;DHT22;33342;45.574;9.252;2023-06-19T11:11:45;27.60;99.90
47626;DHT22;33342;45.574;9.252;2023-06-19T11:14:15;27.60;99.90
47626;DHT22;33342;45.574;9.252;2023-06-19T11:16:45;27.60;99.90
47626;DHT22;33342;45.574;9.252;2023-06-19T11:19:18;27.60;99.90
47626;DHT22;33342;45.574;9.252;2023-06-19T11:21:50;27.70;99.90
47626;DHT22;33342;45.574;9.252;2023-06-19T11:24:19;27.70;99.90
47626;DHT22;33342;45.574;9.252;2023-06-19T11:27:05;27.70;99.90
47626;DHT22;33342;45.574;9.252;2023-06-19T11:29:34;27.70;99.90
47626;DHT22;33342;45.574;9.252;2023-06-19T11:32:06;27.80;99.90
47626;DHT22;33342;45.574;9.252;2023-06-19T11:34:38;27.90;99.90
47626;DHT22;33342;45.574;9.252;2023-06-19T11:37:18;28.00;99.90
47626;DHT22;33342;45.574;9.252;2023-06-19T11:39:49;28.00;99.90
47626;DHT22;33342;45.574;9.252;2023-06-19T11:42:17;28.10;99.90
47626;DHT22;33342;45.574;9.252;2023-06-19T11:44:59;28.20;99.90
47626;DHT22;33342;45.574;9.252;2023-06-19T11:47:30;28.20;99.90
47626;DHT22;33342;45.574;9.252;2023-06-19T11:49:58;28.20;99.90
47626;DHT22;33342;45.574;9.252;2023-06-19T11:52:25;28.20;99.90
47626;DHT22;33342;45.574;9.252;2023-06-19T11:54:53;28.30;99.90
47626;DHT22;33342;45.574;9.252;2023-06-19T11:57:20;28.30;99.90
47626;DHT22;33342;45.574;9.252;2023-06-19T11:59:47;28.30;99.90
47626;DHT22;33342;45.574;9.252;2023-06-19T12:02:14;28.40;99.90
47626;DHT22;33342;45.574;9.252;2023-06-19T12:04:41;28.30;99.90
47626;DHT22;33342;45.574;9.252;2023-06-19T12:07:09;28.30;99.90
47626;DHT22;33342;45.574;9.252;2023-06-19T12:09:36;28.30;99.90
47626;DHT22;33342;45.574;9.252;2023-06-19T12:12:05;28.30;99.90
47626;DHT22;33342;45.574;9.252;2023-06-19T12:14:32;28.30;99.90
47626;DHT22;33342;45.574;9.252;2023-06-19T12:16:59;28.30;99.90
47626;DHT22;33342;45.574;9.252;2023-06-19T12:19:27;28.40;99.90
47626;DHT22;33342;45.574;9.252;2023-06-19T12:21:56;28.40;99.90
47626;DHT22;33342;45.574;9.252;2023-06-19T12:24:24;28.50;99.90
47626;DHT22;33342;45.574;9.252;2023-06-19T12:26:51;28.50;99.90
47626;DHT22;33342;45.574;9.252;2023-06-19T12:29:18;28.50;99.90
47626;DHT22;33342;45.574;9.252;2023-06-19T12:31:47;28.50;99.90
47626;DHT22;33342;45.574;9.252;2023-06-19T12:34:15;28.50;99.90
47626;DHT22;33342;45.574;9.252;2023-06-19T12:36:57;28.60;99.90
47626;DHT22;33342;45.574;9.252;2023-06-19T12:39:25;28.60;99.90
47626;DHT22;33342;45.574;9.252;2023-06-19T12:41:53;28.70;99.90
47626;DHT22;33342;45.574;9.252;2023-06-19T12:44:21;28.70;99.90
47626;DHT22;33342;45.574;9.252;2023-06-19T12:46:49;28.70;99.90
47626;DHT22;33342;45.574;9.252;2023-06-19T12:49:17;28.70;99.90
47626;DHT22;33342;45.574;9.252;2023-06-19T12:51:44;28.80;99.90
47626;DHT22;33342;45.574;9.252;2023-06-19T12:54:11;28.80;99.90
47626;DHT22;33342;45.574;9.252;2023-06-19T12:56:38;28.80;99.90
47626;DHT22;33342;45.574;9.252;2023-06-19T12:59:05;28.80;99.90
47626;DHT22;33342;45.574;9.252;2023-06-19T13:01:34;28.90;99.90
47626;DHT22;33342;45.574;9.252;2023-06-19T13:04:01;28.90;99.90
47626;DHT22;33342;45.574;9.252;2023-06-19T13:06:29;29.00;99.90
47626;DHT22;33342;45.574;9.252;2023-06-19T13:08:56;29.00;99.90
47626;DHT22;33342;45.574;9.252;2023-06-19T13:11:23;29.10;99.90
47626;DHT22;33342;45.574;9.252;2023-06-19T13:13:50;29.20;99.90
47626;DHT22;33342;45.574;9.252;2023-06-19T13:16:18;29.20;99.90
47626;DHT22;33342;45.574;9.252;2023-06-19T13:18:56;29.20;99.90
47626;DHT22;33342;45.574;9.252;2023-06-19T13:21:23;29.30;99.90
47626;DHT22;33342;45.574;9.252;2023-06-19T13:23:50;29.30;99.90
47626;DHT22;33342;45.574;9.252;2023-06-19T13:26:17;29.30;99.90
47626;DHT22;33342;45.574;9.252;2023-06-19T13:28:45;29.30;99.90
47626;DHT22;33342;45.574;9.252;2023-06-19T13:31:12;29.30;99.90
47626;DHT22;33342;45.574;9.252;2023-06-19T13:33:39;29.30;99.90
47626;DHT22;33342;45.574;9.252;2023-06-19T13:36:06;29.30;99.90
47626;DHT22;33342;45.574;9.252;2023-06-19T13:38:33;29.30;99.90
47626;DHT22;33342;45.574;9.252;2023-06-19T13:41:00;29.40;99.90
47626;DHT22;33342;45.574;9.252;2023-06-19T13:43:27;29.50;99.90
47626;DHT22;33342;45.574;9.252;2023-06-19T13:45:54;29.50;99.90
47626;DHT22;33342;45.574;9.252;2023-06-19T13:48:22;29.60;99.90
47626;DHT22;33342;45.574;9.252;2023-06-19T13:50:49;29.60;99.90
47626;DHT22;33342;45.574;9.252;2023-06-19T13:53:16;29.70;99.90
47626;DHT22;33342;45.574;9.252;2023-06-19T13:55:43;29.80;99.90
47626;DHT22;33342;45.574;9.252;2023-06-19T13:58:10;29.90;99.90
47626;DHT22;33342;45.574;9.252;2023-06-19T14:00:38;30.00;99.90
47626;DHT22;33342;45.574;9.252;2023-06-19T14:03:05;30.10;99.90
47626;DHT22;33342;45.574;9.252;2023-06-19T14:05:34;30.10;99.90
47626;DHT22;33342;45.574;9.252;2023-06-19T14:08:05;30.20;99.90
47626;DHT22;33342;45.574;9.252;2023-06-19T14:10:32;30.20;99.90
47626;DHT22;33342;45.574;9.252;2023-06-19T14:12:59;30.20;99.90
47626;DHT22;33342;45.574;9.252;2023-06-19T14:15:26;30.20;99.90
47626;DHT22;33342;45.574;9.252;2023-06-19T14:17:54;30.30;99.90
47626;DHT22;33342;45.574;9.252;2023-06-19T14:20:21;30.40;99.90
47626;DHT22;33342;45.574;9.252;2023-06-19T14:22:48;30.40;99.90
47626;DHT22;33342;45.574;9.252;2023-06-19T14:25:16;30.50;99.90
47626;DHT22;33342;45.574;9.252;2023-06-19T14:27:43;30.50;99.90
47626;DHT22;33342;45.574;9.252;2023-06-19T14:30:10;30.60;99.90
47626;DHT22;33342;45.574;9.252;2023-06-19T14:32:37;30.50;99.90
47626;DHT22;33342;45.574;9.252;2023-06-19T14:35:05;30.60;99.90
47626;DHT22;33342;45.574;9.252;2023-06-19T14:37:33;30.60;99.90
47626;DHT22;33342;45.574;9.252;2023-06-19T14:40:00;30.70;99.90
47626;DHT22;33342;45.574;9.252;2023-06-19T14:42:28;30.70;99.90
47626;DHT22;33342;45.574;9.252;2023-06-19T14:44:56;30.70;99.90
47626;DHT22;33342;45.574;9.252;2023-06-19T14:47:23;30.80;99.90
47626;DHT22;33342;45.574;9.252;2023-06-19T14:49:52;30.80;99.90
47626;DHT22;33342;45.574;9.252;2023-06-19T14:52:19;30.80;99.90
47626;DHT22;33342;45.574;9.252;2023-06-19T14:54:47;30.90;99.90
47626;DHT22;33342;45.574;9.252;2023-06-19T14:57:14;30.90;99.90
47626;DHT22;33342;45.574;9.252;2023-06-19T14:59:41;30.80;99.90
47626;DHT22;33342;45.574;9.252;2023-06-19T15:02:08;30.80;99.90
47626;DHT22;33342;45.574;9.252;2023-06-19T15:04:37;30.70;99.90
47626;DHT22;33342;45.574;9.252;2023-06-19T15:07:07;30.60;99.90
47626;DHT22;33342;45.574;9.252;2023-06-19T15:09:34;30.60;99.90
47626;DHT22;33342;45.574;9.252;2023-06-19T15:12:01;30.50;99.90
47626;DHT22;33342;45.574;9.252;2023-06-19T15:14:29;30.50;99.90
47626;DHT22;33342;45.574;9.252;2023-06-19T15:16:56;30.50;99.90
47626;DHT22;33342;45.574;9.252;2023-06-19T15:19:23;30.40;99.90
47626;DHT22;33342;45.574;9.252;2023-06-19T15:21:50;30.40;99.90
47626;DHT22;33342;45.574;9.252;2023-06-19T15:24:17;30.40;99.90
47626;DHT22;33342;45.574;9.252;2023-06-19T15:26:45;30.40;99.90
47626;DHT22;33342;45.574;9.252;2023-06-19T15:29:12;30.40;99.90
47626;DHT22;33342;45.574;9.252;2023-06-19T15:31:39;30.40;99.90
47626;DHT22;33342;45.574;9.252;2023-06-19T15:34:06;30.40;99.90
47626;DHT22;33342;45.574;9.252;2023-06-19T15:36:33;30.50;99.90
47626;DHT22;33342;45.574;9.252;2023-06-19T15:39:01;30.60;99.90
47626;DHT22;33342;45.574;9.252;2023-06-19T15:41:28;30.60;99.90
47626;DHT22;33342;45.574;9.252;2023-06-19T15:43:55;30.60;99.90